Time,TemperatureF,DewpointF,PressureIn,WindDirection,WindDirectionDegrees,WindSpeedMPH,WindSpeedGustMPH,Humidity,HourlyPrecipIn,Conditions,Clouds,dailyrainin,SoftwareType,DateUTC
2013-03-25 00:03:00,38.3,35.1,30.12,NW,321,0.0,0.0,88,0.00,,,0.00,Wunderground v.1.15,2013-03-25 07:03:00,
2013-03-25 00:09:00,38.3,35.1,30.12,NW,321,0.0,0.0,88,0.00,,,0.00,Wunderground v.1.15,2013-03-25 07:09:00,
2013-03-25 00:14:00,38.3,35.3,30.12,NW,321,0.0,0.0,89,0.00,,,0.00,Wunderground v.1.15,2013-03-25 07:14:00,
2013-03-25 00:20:00,38.3,35.3,30.13,NW,321,0.0,0.0,89,0.00,,,0.00,Wunderground v.1.15,2013-03-25 07:20:00,
2013-03-25 00:26:00,38.3,35.3,30.12,NW,321,0.0,0.0,89,0.00,,,0.00,Wunderground v.1.15,2013-03-25 07:26:00,
2013-03-25 00:32:00,38.4,35.2,30.12,NW,321,0.0,0.0,88,0.00,,,0.00,Wunderground v.1.15,2013-03-25 07:32:00,
2013-03-25 00:38:00,38.4,35.2,30.12,NW,321,0.0,0.0,88,0.00,,,0.00,Wunderground v.1.15,2013-03-25 07:38:00,
2013-03-25 00:44:00,38.4,35.2,30.12,NW,321,0.0,0.0,88,0.00,,,0.00,Wunderground v.1.15,2013-03-25 07:44:00,
2013-03-25 00:49:00,38.3,34.8,30.12,NW,321,0.0,0.0,87,0.00,,,0.00,Wunderground v.1.15,2013-03-25 07:49:00,
2013-03-25 00:54:00,38.3,34.8,30.12,NW,321,0.0,0.0,87,0.00,,,0.00,Wunderground v.1.15,2013-03-25 07:54:00,
2013-03-25 01:00:00,38.2,34.7,30.12,NW,321,0.0,0.0,87,0.00,,,0.00,Wunderground v.1.15,2013-03-25 08:00:00,
2013-03-25 01:05:00,38.1,34.6,30.11,NW,321,0.0,0.0,87,0.00,,,0.00,Wunderground v.1.15,2013-03-25 08:05:00,
2013-03-25 01:10:00,38.1,34.3,30.11,NW,321,0.0,0.0,86,0.00,,,0.00,Wunderground v.1.15,2013-03-25 08:10:00,
2013-03-25 01:17:00,38.0,34.2,30.11,NW,321,0.0,0.0,86,0.00,,,0.00,Wunderground v.1.15,2013-03-25 08:17:00,
2013-03-25 01:23:00,38.1,34.3,30.11,NW,321,0.0,0.0,86,0.00,,,0.00,Wunderground v.1.15,2013-03-25 08:23:00,
2013-03-25 01:28:00,38.1,34.3,30.11,NW,321,0.0,0.0,86,0.00,,,0.00,Wunderground v.1.15,2013-03-25 08:28:00,
2013-03-25 01:33:00,38.3,34.5,30.11,NW,321,0.0,0.0,86,0.00,,,0.00,Wunderground v.1.15,2013-03-25 08:33:00,
2013-03-25 01:38:00,38.4,34.6,30.11,NW,321,0.0,0.0,86,0.00,,,0.00,Wunderground v.1.15,2013-03-25 08:38:00,
2013-03-25 01:43:00,38.7,34.9,30.11,NW,321,0.0,0.0,86,0.00,,,0.00,Wunderground v.1.15,2013-03-25 08:43:00,
2013-03-25 01:49:00,39.2,35.4,30.11,NW,321,0.0,0.0,86,0.00,,,0.00,Wunderground v.1.15,2013-03-25 08:49:00,
2013-03-25 01:55:00,39.7,35.6,30.11,NNW,330,0.0,0.0,85,0.00,,,0.00,Wunderground v.1.15,2013-03-25 08:55:00,
2013-03-25 02:00:00,40.1,35.7,30.11,WSW,257,0.0,0.0,84,0.00,,,0.00,Wunderground v.1.15,2013-03-25 09:00:00,
2013-03-25 02:05:00,40.6,35.8,30.11,West,277,0.0,0.0,83,0.00,,,0.00,Wunderground v.1.15,2013-03-25 09:05:00,
2013-03-25 02:10:00,40.9,35.8,30.11,WNW,283,0.0,0.0,82,0.00,,,0.00,Wunderground v.1.15,2013-03-25 09:10:00,
2013-03-25 02:15:00,41.1,35.7,30.11,NNW,348,0.0,2.0,81,0.00,,,0.00,Wunderground v.1.15,2013-03-25 09:15:00,
2013-03-25 02:20:00,41.1,35.7,30.10,North,349,0.0,1.0,81,0.00,,,0.00,Wunderground v.1.15,2013-03-25 09:20:00,
2013-03-25 02:25:00,41.2,35.5,30.10,North,349,0.0,1.0,80,0.00,,,0.00,Wunderground v.1.15,2013-03-25 09:25:00,
2013-03-25 02:30:00,41.3,35.6,30.10,North,349,0.0,0.0,80,0.00,,,0.00,Wunderground v.1.15,2013-03-25 09:30:00,
2013-03-25 02:35:00,41.4,35.7,30.10,North,349,0.0,0.0,80,0.00,,,0.00,Wunderground v.1.15,2013-03-25 09:35:00,
2013-03-25 02:40:00,41.4,35.4,30.10,NNW,333,0.0,0.0,79,0.00,,,0.00,Wunderground v.1.15,2013-03-25 09:40:00,
2013-03-25 02:45:00,41.5,35.5,30.10,NNW,333,0.0,1.0,79,0.00,,,0.00,Wunderground v.1.15,2013-03-25 09:45:00,
2013-03-25 02:50:00,41.5,35.2,30.10,NNW,333,0.0,0.0,78,0.00,,,0.00,Wunderground v.1.15,2013-03-25 09:50:00,
2013-03-25 02:55:00,41.6,35.2,30.10,NNW,333,0.0,1.0,78,0.00,,,0.00,Wunderground v.1.15,2013-03-25 09:55:00,
2013-03-25 03:01:00,41.6,35.2,30.10,NNW,344,0.0,0.0,78,0.00,,,0.00,Wunderground v.1.15,2013-03-25 10:01:00,
2013-03-25 03:06:00,41.6,35.2,30.10,NNW,344,0.0,0.0,78,0.00,,,0.00,Wunderground v.1.15,2013-03-25 10:06:00,
2013-03-25 03:11:00,41.5,35.2,30.10,NNW,344,0.0,1.0,78,0.00,,,0.00,Wunderground v.1.15,2013-03-25 10:11:00,
2013-03-25 03:16:00,41.5,35.2,30.10,NNW,344,0.0,1.0,78,0.00,,,0.00,Wunderground v.1.15,2013-03-25 10:16:00,
2013-03-25 03:21:00,41.5,35.2,30.10,NNW,344,0.0,0.0,78,0.00,,,0.00,Wunderground v.1.15,2013-03-25 10:21:00,
2013-03-25 03:26:00,41.5,35.2,30.10,NNW,346,0.0,1.0,78,0.00,,,0.00,Wunderground v.1.15,2013-03-25 10:26:00,
2013-03-25 03:31:00,41.5,35.2,30.10,NNW,327,0.0,0.0,78,0.00,,,0.00,Wunderground v.1.15,2013-03-25 10:31:00,
2013-03-25 03:36:00,41.5,35.2,30.09,NNW,333,0.0,1.0,78,0.00,,,0.00,Wunderground v.1.15,2013-03-25 10:36:00,
2013-03-25 03:41:00,41.5,35.2,30.10,NNW,333,0.0,1.0,78,0.00,,,0.00,Wunderground v.1.15,2013-03-25 10:41:00,
2013-03-25 03:46:00,41.5,35.5,30.10,North,351,0.0,1.0,79,0.00,,,0.00,Wunderground v.1.15,2013-03-25 10:46:00,
2013-03-25 03:51:00,41.4,35.4,30.09,North,350,0.0,0.0,79,0.00,,,0.00,Wunderground v.1.15,2013-03-25 10:51:00,
2013-03-25 03:56:00,41.4,35.4,30.10,North,350,0.0,0.0,79,0.00,,,0.00,Wunderground v.1.15,2013-03-25 10:56:00,
2013-03-25 04:01:00,41.4,35.4,30.09,North,360,0.0,1.0,79,0.00,,,0.00,Wunderground v.1.15,2013-03-25 11:01:00,
2013-03-25 04:06:00,41.3,35.3,30.09,North,360,0.0,1.0,79,0.00,,,0.00,Wunderground v.1.15,2013-03-25 11:06:00,
2013-03-25 04:12:00,41.2,35.2,30.09,North,360,0.0,0.0,79,0.00,,,0.00,Wunderground v.1.15,2013-03-25 11:12:00,
2013-03-25 04:17:00,41.1,35.1,30.10,North,360,0.0,0.0,79,0.00,,,0.00,Wunderground v.1.15,2013-03-25 11:17:00,
2013-03-25 04:22:00,41.1,35.1,30.10,North,360,0.0,0.0,79,0.00,,,0.00,Wunderground v.1.15,2013-03-25 11:22:00,
2013-03-25 04:27:00,41.1,35.1,30.09,North,360,0.0,1.0,79,0.00,,,0.00,Wunderground v.1.15,2013-03-25 11:27:00,
2013-03-25 04:32:00,41.0,35.0,30.09,North,360,0.0,0.0,79,0.00,,,0.00,Wunderground v.1.15,2013-03-25 11:32:00,
2013-03-25 04:37:00,41.0,35.0,30.09,North,360,0.0,0.0,79,0.00,,,0.00,Wunderground v.1.15,2013-03-25 11:37:00,
2013-03-25 04:42:00,41.0,35.3,30.09,North,360,0.0,1.0,80,0.00,,,0.00,Wunderground v.1.15,2013-03-25 11:42:00,
2013-03-25 04:47:00,41.0,35.3,30.09,North,360,0.0,1.0,80,0.00,,,0.00,Wunderground v.1.15,2013-03-25 11:47:00,
2013-03-25 04:52:00,41.0,35.3,30.09,North,360,0.0,1.0,80,0.00,,,0.00,Wunderground v.1.15,2013-03-25 11:52:00,
2013-03-25 04:57:00,41.0,35.0,30.09,North,355,0.0,2.0,79,0.00,,,0.00,Wunderground v.1.15,2013-03-25 11:57:00,
2013-03-25 05:02:00,41.0,35.0,30.09,North,355,1.0,1.0,79,0.00,,,0.00,Wunderground v.1.15,2013-03-25 12:02:00,
2013-03-25 05:07:00,41.1,35.1,30.09,NNW,346,0.0,1.0,79,0.00,,,0.00,Wunderground v.1.15,2013-03-25 12:07:00,
2013-03-25 05:13:00,41.1,35.1,30.09,NNW,345,0.0,0.0,79,0.00,,,0.00,Wunderground v.1.15,2013-03-25 12:13:00,
2013-03-25 05:18:00,41.1,35.1,30.09,NNE,19,0.0,2.0,79,0.00,,,0.00,Wunderground v.1.15,2013-03-25 12:18:00,
2013-03-25 05:23:00,41.2,35.2,30.09,North,11,0.0,2.0,79,0.00,,,0.00,Wunderground v.1.15,2013-03-25 12:23:00,
2013-03-25 05:28:00,41.2,35.2,30.09,North,11,0.0,2.0,79,0.00,,,0.00,Wunderground v.1.15,2013-03-25 12:28:00,
2013-03-25 05:33:00,41.2,35.2,30.09,North,11,0.0,1.0,79,0.00,,,0.00,Wunderground v.1.15,2013-03-25 12:33:00,
2013-03-25 05:38:00,41.2,35.2,30.09,North,11,0.0,1.0,79,0.00,,,0.00,Wunderground v.1.15,2013-03-25 12:38:00,
2013-03-25 05:43:00,41.3,35.0,30.09,NNW,340,0.0,1.0,78,0.00,,,0.00,Wunderground v.1.15,2013-03-25 12:43:00,
2013-03-25 05:48:00,41.3,35.0,30.08,NNW,333,3.0,6.0,78,0.00,,,0.00,Wunderground v.1.15,2013-03-25 12:48:00,
2013-03-25 05:53:00,41.4,35.1,30.09,NNW,346,0.0,1.0,78,0.00,,,0.00,Wunderground v.1.15,2013-03-25 12:53:00,
2013-03-25 05:58:00,41.5,35.2,30.08,NNW,339,0.0,2.0,78,0.00,,,0.00,Wunderground v.1.15,2013-03-25 12:58:00,
2013-03-25 06:03:00,41.5,35.2,30.09,NNW,332,0.0,1.0,78,0.00,,,0.00,Wunderground v.1.15,2013-03-25 13:03:00,
2013-03-25 06:08:00,41.5,34.8,30.09,North,351,0.0,2.0,77,0.00,,,0.00,Wunderground v.1.15,2013-03-25 13:08:00,
2013-03-25 06:14:00,41.5,34.8,30.08,North,350,0.0,1.0,77,0.00,,,0.00,Wunderground v.1.15,2013-03-25 13:14:00,
2013-03-25 06:19:00,41.4,34.7,30.08,North,350,0.0,1.0,77,0.00,,,0.00,Wunderground v.1.15,2013-03-25 13:19:00,
2013-03-25 06:24:00,41.3,34.6,30.08,North,350,0.0,1.0,77,0.00,,,0.00,Wunderground v.1.15,2013-03-25 13:24:00,
2013-03-25 06:29:00,41.2,34.5,30.09,North,360,0.0,5.0,77,0.00,,,0.00,Wunderground v.1.15,2013-03-25 13:29:00,
2013-03-25 06:34:00,41.1,34.4,30.09,NNE,15,0.0,1.0,77,0.00,,,0.00,Wunderground v.1.15,2013-03-25 13:34:00,
2013-03-25 06:39:00,41.1,34.4,30.09,NNE,14,0.0,1.0,77,0.00,,,0.00,Wunderground v.1.15,2013-03-25 13:39:00,
2013-03-25 06:44:00,41.0,34.3,30.09,NNW,338,0.0,2.0,77,0.00,,,0.00,Wunderground v.1.15,2013-03-25 13:44:00,
2013-03-25 06:49:00,41.0,34.3,30.09,North,355,0.0,2.0,77,0.00,,,0.00,Wunderground v.1.15,2013-03-25 13:49:00,
2013-03-25 06:54:00,40.9,34.2,30.08,North,355,1.0,1.0,77,0.00,,,0.00,Wunderground v.1.15,2013-03-25 13:54:00,
2013-03-25 06:59:00,40.9,34.2,30.08,NNE,31,0.0,2.0,77,0.00,,,0.00,Wunderground v.1.15,2013-03-25 13:59:00,
2013-03-25 07:04:00,40.8,34.5,30.08,NNW,341,0.0,2.0,78,0.00,,,0.00,Wunderground v.1.15,2013-03-25 14:04:00,
2013-03-25 07:09:00,40.7,34.4,30.08,NNW,340,0.0,2.0,78,0.00,,,0.00,Wunderground v.1.15,2013-03-25 14:09:00,
2013-03-25 07:14:00,40.6,34.3,30.08,NNW,340,0.0,0.0,78,0.00,,,0.00,Wunderground v.1.15,2013-03-25 14:14:00,
2013-03-25 07:19:00,40.4,34.1,30.08,NNW,340,0.0,0.0,78,0.00,,,0.00,Wunderground v.1.15,2013-03-25 14:19:00,
2013-03-25 07:24:00,40.3,34.0,30.08,NNW,340,0.0,1.0,78,0.00,,,0.00,Wunderground v.1.15,2013-03-25 14:24:00,
2013-03-25 07:29:00,40.2,34.2,30.08,NNW,348,0.0,2.0,79,0.00,,,0.00,Wunderground v.1.15,2013-03-25 14:29:00,
2013-03-25 07:34:00,40.2,34.2,30.08,NNW,348,0.0,1.0,79,0.00,,,0.00,Wunderground v.1.15,2013-03-25 14:34:00,
2013-03-25 07:39:00,40.1,34.1,30.08,NNW,342,0.0,1.0,79,0.00,,,0.00,Wunderground v.1.15,2013-03-25 14:39:00,
2013-03-25 07:44:00,40.1,34.4,30.08,NNW,341,0.0,1.0,80,0.00,,,0.00,Wunderground v.1.15,2013-03-25 14:44:00,
2013-03-25 07:49:00,40.1,34.4,30.08,NNW,342,0.0,2.0,80,0.00,,,0.00,Wunderground v.1.15,2013-03-25 14:49:00,
2013-03-25 07:54:00,40.0,34.3,30.08,North,351,1.0,1.0,80,0.00,,,0.00,Wunderground v.1.15,2013-03-25 14:54:00,
2013-03-25 07:59:00,40.1,34.4,30.08,NNW,338,0.0,1.0,80,0.00,,,0.00,Wunderground v.1.15,2013-03-25 14:59:00,
2013-03-25 08:04:00,40.2,34.5,30.08,NNW,339,0.0,0.0,80,0.00,,,0.00,Wunderground v.1.15,2013-03-25 15:04:00,
2013-03-25 08:09:00,40.3,34.6,30.08,NNW,338,0.0,0.0,80,0.00,,,0.00,Wunderground v.1.15,2013-03-25 15:09:00,
2013-03-25 08:14:00,40.4,34.7,30.08,North,360,0.0,2.0,80,0.00,,,0.00,Wunderground v.1.15,2013-03-25 15:14:00,
2013-03-25 08:19:00,40.4,34.7,30.08,North,355,0.0,2.0,80,0.00,,,0.00,Wunderground v.1.15,2013-03-25 15:19:00,
2013-03-25 08:24:00,40.5,34.8,30.08,NNW,344,0.0,1.0,80,0.00,,,0.00,Wunderground v.1.15,2013-03-25 15:24:00,
2013-03-25 08:29:00,40.6,34.9,30.08,North,349,0.0,2.0,80,0.00,,,0.00,Wunderground v.1.15,2013-03-25 15:29:00,
2013-03-25 08:34:00,40.9,35.2,30.08,North,5,1.0,2.0,80,0.00,,,0.00,Wunderground v.1.15,2013-03-25 15:34:00,
2013-03-25 08:39:00,41.1,35.1,30.08,NNE,17,0.0,2.0,79,0.00,,,0.00,Wunderground v.1.15,2013-03-25 15:39:00,
2013-03-25 08:45:00,41.3,35.3,30.08,NNE,21,0.0,1.0,79,0.00,,,0.00,Wunderground v.1.15,2013-03-25 15:45:00,
2013-03-25 08:50:00,41.5,35.2,30.08,North,9,0.0,0.0,78,0.00,,,0.00,Wunderground v.1.15,2013-03-25 15:50:00,
2013-03-25 08:55:00,41.7,35.3,30.08,NNE,12,5.0,7.0,78,0.00,,,0.00,Wunderground v.1.15,2013-03-25 15:55:00,
2013-03-25 09:00:00,42.0,35.3,30.08,North,350,0.0,7.0,77,0.00,,,0.00,Wunderground v.1.15,2013-03-25 16:00:00,
2013-03-25 09:05:00,42.4,35.7,30.08,NW,309,0.0,2.0,77,0.00,,,0.00,Wunderground v.1.15,2013-03-25 16:05:00,
2013-03-25 09:10:00,42.7,35.7,30.08,NNW,340,0.0,0.0,76,0.00,,,0.00,Wunderground v.1.15,2013-03-25 16:10:00,
2013-03-25 09:15:00,43.0,36.0,30.08,North,355,4.0,4.0,76,0.00,,,0.00,Wunderground v.1.15,2013-03-25 16:15:00,
2013-03-25 09:20:00,43.4,35.7,30.08,ENE,68,1.0,1.0,74,0.00,,,0.00,Wunderground v.1.15,2013-03-25 16:20:00,
2013-03-25 09:25:00,43.7,36.0,30.08,North,355,0.0,1.0,74,0.00,,,0.00,Wunderground v.1.15,2013-03-25 16:25:00,
2013-03-25 09:30:00,44.0,35.9,30.08,NNW,338,1.0,1.0,73,0.00,,,0.00,Wunderground v.1.15,2013-03-25 16:30:00,
2013-03-25 09:35:00,44.4,35.9,30.08,NW,326,1.0,2.0,72,0.00,,,0.00,Wunderground v.1.15,2013-03-25 16:35:00,
2013-03-25 09:40:00,45.0,36.2,30.08,North,5,0.0,1.0,71,0.00,,,0.00,Wunderground v.1.15,2013-03-25 16:40:00,
2013-03-25 09:45:00,45.4,36.5,30.07,NNW,344,0.0,8.0,71,0.00,,,0.00,Wunderground v.1.15,2013-03-25 16:45:00,
2013-03-25 09:50:00,45.9,36.7,30.07,North,355,0.0,1.0,70,0.00,,,0.00,Wunderground v.1.15,2013-03-25 16:50:00,
2013-03-25 09:55:00,46.3,36.7,30.07,North,350,0.0,4.0,69,0.00,,,0.00,Wunderground v.1.15,2013-03-25 16:55:00,
2013-03-25 10:00:00,46.8,36.8,30.07,North,9,0.0,0.0,68,0.00,,,0.00,Wunderground v.1.15,2013-03-25 17:00:00,
2013-03-25 10:05:00,47.4,37.4,30.07,NNE,17,0.0,4.0,68,0.00,,,0.00,Wunderground v.1.15,2013-03-25 17:05:00,
2013-03-25 10:10:00,47.9,37.5,30.07,NNW,339,0.0,0.0,67,0.00,,,0.00,Wunderground v.1.15,2013-03-25 17:10:00,
2013-03-25 10:15:00,48.5,37.7,30.07,NNW,330,0.0,4.0,66,0.00,,,0.00,Wunderground v.1.15,2013-03-25 17:15:00,
2013-03-25 10:20:00,48.9,36.4,30.07,ENE,72,0.0,0.0,62,0.00,,,0.00,Wunderground v.1.15,2013-03-25 17:20:00,
2013-03-25 10:25:00,49.4,37.7,30.07,NNW,333,0.0,7.0,64,0.00,,,0.00,Wunderground v.1.15,2013-03-25 17:25:00,
2013-03-25 10:30:00,49.9,37.4,30.07,NNE,17,0.0,0.0,62,0.00,,,0.00,Wunderground v.1.15,2013-03-25 17:30:00,
2013-03-25 10:35:00,50.3,37.4,30.07,NNE,13,0.0,1.0,61,0.00,,,0.00,Wunderground v.1.15,2013-03-25 17:35:00,
2013-03-25 10:40:00,50.8,37.4,30.07,NNE,13,0.0,0.0,60,0.00,,,0.00,Wunderground v.1.15,2013-03-25 17:40:00,
2013-03-25 10:45:00,51.4,39.2,30.07,NNW,331,0.0,7.0,63,0.00,,,0.00,Wunderground v.1.15,2013-03-25 17:45:00,
2013-03-25 10:50:00,52.1,39.5,30.07,SW,217,0.0,0.0,62,0.00,,,0.00,Wunderground v.1.15,2013-03-25 17:50:00,
2013-03-25 10:55:00,52.6,38.2,30.07,East,79,0.0,0.0,58,0.00,,,0.00,Wunderground v.1.15,2013-03-25 17:55:00,
2013-03-25 11:00:00,53.3,39.3,30.07,West,275,0.0,1.0,59,0.00,,,0.00,Wunderground v.1.15,2013-03-25 18:00:00,
2013-03-25 11:05:00,53.8,38.9,30.07,West,275,0.0,1.0,57,0.00,,,0.00,Wunderground v.1.15,2013-03-25 18:05:00,
2013-03-25 11:10:00,54.1,38.3,30.07,ESE,120,0.0,0.0,55,0.00,,,0.00,Wunderground v.1.15,2013-03-25 18:10:00,
2013-03-25 11:15:00,54.5,40.0,30.07,East,79,0.0,0.0,58,0.00,,,0.00,Wunderground v.1.15,2013-03-25 18:15:00,
2013-03-25 11:20:00,55.2,39.8,30.07,North,355,0.0,0.0,56,0.00,,,0.00,Wunderground v.1.15,2013-03-25 18:20:00,
2013-03-25 11:25:00,55.7,39.3,30.06,SE,134,0.0,1.0,54,0.00,,,0.00,Wunderground v.1.15,2013-03-25 18:25:00,
2013-03-25 11:30:00,55.8,39.4,30.06,NNW,342,0.0,1.0,54,0.00,,,0.00,Wunderground v.1.15,2013-03-25 18:30:00,
2013-03-25 11:35:00,56.3,40.8,30.06,NNE,18,0.0,4.0,56,0.00,,,0.00,Wunderground v.1.15,2013-03-25 18:35:00,
2013-03-25 11:40:00,56.7,40.2,30.06,NNW,340,0.0,0.0,54,0.00,,,0.00,Wunderground v.1.15,2013-03-25 18:40:00,
2013-03-25 11:45:00,57.1,39.6,30.05,North,9,0.0,4.0,52,0.00,,,0.00,Wunderground v.1.15,2013-03-25 18:45:00,
2013-03-25 11:50:00,57.5,39.5,30.05,North,350,0.0,0.0,51,0.00,,,0.00,Wunderground v.1.15,2013-03-25 18:50:00,
2013-03-25 11:56:00,58.1,40.6,30.05,NNW,347,0.0,4.0,52,0.00,,,0.00,Wunderground v.1.15,2013-03-25 18:56:00,
2013-03-25 12:01:00,58.8,41.2,30.05,NNW,335,4.0,4.0,52,0.00,,,0.00,Wunderground v.1.15,2013-03-25 19:01:00,
2013-03-25 12:06:00,59.0,39.9,30.05,ENE,60,0.0,5.0,49,0.00,,,0.00,Wunderground v.1.15,2013-03-25 19:06:00,
2013-03-25 12:11:00,59.3,40.1,30.05,NNE,13,0.0,1.0,49,0.00,,,0.00,Wunderground v.1.15,2013-03-25 19:11:00,
2013-03-25 12:16:00,59.1,37.8,30.05,SSE,159,0.0,1.0,45,0.00,,,0.00,Wunderground v.1.15,2013-03-25 19:16:00,
2013-03-25 12:21:00,59.1,42.0,30.04,ENE,69,0.0,1.0,53,0.00,,,0.00,Wunderground v.1.15,2013-03-25 19:21:00,
2013-03-25 12:26:00,59.0,40.9,30.04,North,360,0.0,2.0,51,0.00,,,0.00,Wunderground v.1.15,2013-03-25 19:26:00,
2013-03-25 12:31:00,59.5,41.3,30.04,North,360,0.0,0.0,51,0.00,,,0.00,Wunderground v.1.15,2013-03-25 19:31:00,
2013-03-25 12:36:00,58.6,36.2,30.04,SSW,192,0.0,2.0,43,0.00,,,0.00,Wunderground v.1.15,2013-03-25 19:36:00,
2013-03-25 12:41:00,57.0,39.5,30.04,South,182,0.0,2.0,52,0.00,,,0.00,Wunderground v.1.15,2013-03-25 19:41:00,
2013-03-25 12:47:00,56.6,39.2,30.03,SSW,196,0.0,2.0,52,0.00,,,0.00,Wunderground v.1.15,2013-03-25 19:47:00,
2013-03-25 12:52:00,56.0,40.5,30.03,SSE,166,2.0,5.0,56,0.00,,,0.00,Wunderground v.1.15,2013-03-25 19:52:00,
2013-03-25 12:57:00,55.6,39.2,30.03,South,171,1.0,5.0,54,0.00,,,0.00,Wunderground v.1.15,2013-03-25 19:57:00,
2013-03-25 13:02:00,55.7,38.8,30.03,South,173,1.0,5.0,53,0.00,,,0.00,Wunderground v.1.15,2013-03-25 20:02:00,
2013-03-25 13:07:00,56.0,38.6,30.03,SSW,202,0.0,5.0,52,0.00,,,0.00,Wunderground v.1.15,2013-03-25 20:07:00,
2013-03-25 13:12:00,56.7,41.6,30.03,NNE,24,2.0,2.0,57,0.00,,,0.00,Wunderground v.1.15,2013-03-25 20:12:00,
2013-03-25 13:18:00,57.5,41.0,30.03,NE,45,0.0,6.0,54,0.00,,,0.00,Wunderground v.1.15,2013-03-25 20:18:00,
2013-03-25 13:23:00,57.9,41.3,30.03,WNW,291,5.0,5.0,54,0.00,,,0.00,Wunderground v.1.15,2013-03-25 20:23:00,
2013-03-25 13:28:00,58.4,41.3,30.02,SSW,205,0.0,5.0,53,0.00,,,0.00,Wunderground v.1.15,2013-03-25 20:28:00,
2013-03-25 13:33:00,58.6,40.5,30.02,South,191,0.0,1.0,51,0.00,,,0.00,Wunderground v.1.15,2013-03-25 20:33:00,
2013-03-25 13:38:00,58.5,40.4,30.02,SSW,202,0.0,4.0,51,0.00,,,0.00,Wunderground v.1.15,2013-03-25 20:38:00,
2013-03-25 13:43:00,58.6,41.0,30.02,NNE,21,3.0,6.0,52,0.00,,,0.00,Wunderground v.1.15,2013-03-25 20:43:00,
2013-03-25 13:48:00,58.5,40.4,30.02,WSW,257,0.0,6.0,51,0.00,,,0.00,Wunderground v.1.15,2013-03-25 20:48:00,
2013-03-25 13:53:00,58.4,40.8,30.01,NW,324,5.0,7.0,52,0.00,,,0.00,Wunderground v.1.15,2013-03-25 20:53:00,
2013-03-25 13:58:00,58.4,40.3,30.01,WSW,257,0.0,7.0,51,0.00,,,0.00,Wunderground v.1.15,2013-03-25 20:58:00,
2013-03-25 14:03:00,58.7,40.6,30.01,SW,214,0.0,3.0,51,0.00,,,0.00,Wunderground v.1.15,2013-03-25 21:03:00,
2013-03-25 14:08:00,59.0,39.9,30.01,SSW,199,0.0,5.0,49,0.00,,,0.00,Wunderground v.1.15,2013-03-25 21:08:00,
2013-03-25 14:13:00,59.0,40.9,30.00,North,349,6.0,6.0,51,0.00,,,0.00,Wunderground v.1.15,2013-03-25 21:13:00,
2013-03-25 14:18:00,59.4,39.7,30.00,NNW,344,0.0,6.0,48,0.00,,,0.00,Wunderground v.1.15,2013-03-25 21:18:00,
2013-03-25 14:23:00,59.6,42.4,30.00,North,9,1.0,5.0,53,0.00,,,0.00,Wunderground v.1.15,2013-03-25 21:23:00,
2013-03-25 14:28:00,60.0,41.8,30.00,NNE,17,0.0,5.0,51,0.00,,,0.00,Wunderground v.1.15,2013-03-25 21:28:00,
2013-03-25 14:33:00,60.1,41.9,30.00,East,94,0.0,3.0,51,0.00,,,0.00,Wunderground v.1.15,2013-03-25 21:33:00,
2013-03-25 14:38:00,60.3,40.0,29.99,SW,231,0.0,4.0,47,0.00,,,0.00,Wunderground v.1.15,2013-03-25 21:38:00,
2013-03-25 14:43:00,60.4,41.1,29.99,North,360,0.0,6.0,49,0.00,,,0.00,Wunderground v.1.15,2013-03-25 21:43:00,
2013-03-25 14:48:00,60.5,40.2,29.99,WSW,256,0.0,6.0,47,0.00,,,0.00,Wunderground v.1.15,2013-03-25 21:48:00,
2013-03-25 14:53:00,60.8,41.0,29.99,NE,44,0.0,5.0,48,0.00,,,0.00,Wunderground v.1.15,2013-03-25 21:53:00,
2013-03-25 14:58:00,61.0,42.2,29.99,North,9,0.0,7.0,50,0.00,,,0.00,Wunderground v.1.15,2013-03-25 21:58:00,
2013-03-25 15:03:00,60.9,40.5,29.99,NW,316,2.0,5.0,47,0.00,,,0.00,Wunderground v.1.15,2013-03-25 22:03:00,
2013-03-25 15:08:00,60.7,40.3,29.99,SSW,203,0.0,5.0,47,0.00,,,0.00,Wunderground v.1.15,2013-03-25 22:08:00,
2013-03-25 15:13:00,60.8,42.5,29.99,North,355,0.0,5.0,51,0.00,,,0.00,Wunderground v.1.15,2013-03-25 22:13:00,
2013-03-25 15:19:00,60.5,41.8,29.99,NNW,331,0.0,7.0,50,0.00,,,0.00,Wunderground v.1.15,2013-03-25 22:19:00,
2013-03-25 15:24:00,60.3,42.1,29.99,North,355,0.0,2.0,51,0.00,,,0.00,Wunderground v.1.15,2013-03-25 22:24:00,
2013-03-25 15:29:00,60.5,43.8,29.99,North,360,0.0,7.0,54,0.00,,,0.00,Wunderground v.1.15,2013-03-25 22:29:00,
2013-03-25 15:34:00,60.8,42.5,29.98,NNW,342,1.0,5.0,51,0.00,,,0.00,Wunderground v.1.15,2013-03-25 22:34:00,
2013-03-25 15:39:00,61.1,42.3,29.98,North,9,0.0,5.0,50,0.00,,,0.00,Wunderground v.1.15,2013-03-25 22:39:00,
2013-03-25 15:44:00,61.4,42.1,29.98,NNE,18,0.0,1.0,49,0.00,,,0.00,Wunderground v.1.15,2013-03-25 22:44:00,
2013-03-25 15:49:00,61.6,42.8,29.98,NW,315,0.0,5.0,50,0.00,,,0.00,Wunderground v.1.15,2013-03-25 22:49:00,
2013-03-25 15:54:00,61.5,43.2,29.98,NNW,342,0.0,2.0,51,0.00,,,0.00,Wunderground v.1.15,2013-03-25 22:54:00,
2013-03-25 15:59:00,61.5,43.7,29.98,NNW,342,1.0,6.0,52,0.00,,,0.00,Wunderground v.1.15,2013-03-25 22:59:00,
2013-03-25 16:04:00,61.1,42.8,29.97,NNW,339,2.0,5.0,51,0.00,,,0.00,Wunderground v.1.15,2013-03-25 23:04:00,
2013-03-25 16:09:00,60.8,43.1,29.97,NNW,348,5.0,5.0,52,0.00,,,0.00,Wunderground v.1.15,2013-03-25 23:09:00,
2013-03-25 16:14:00,60.7,42.5,29.97,NE,45,0.0,6.0,51,0.00,,,0.00,Wunderground v.1.15,2013-03-25 23:14:00,
2013-03-25 16:19:00,60.6,42.4,29.97,NW,314,5.0,10.0,51,0.00,,,0.00,Wunderground v.1.15,2013-03-25 23:19:00,
2013-03-25 16:24:00,60.1,41.4,29.97,North,355,1.0,4.0,50,0.00,,,0.00,Wunderground v.1.15,2013-03-25 23:24:00,
2013-03-25 16:29:00,59.9,41.7,29.97,SE,136,0.0,5.0,51,0.00,,,0.00,Wunderground v.1.15,2013-03-25 23:29:00,
2013-03-25 16:34:00,59.6,41.9,29.97,NNE,18,6.0,6.0,52,0.00,,,0.00,Wunderground v.1.15,2013-03-25 23:34:00,
2013-03-25 16:39:00,59.2,42.1,29.97,North,360,4.0,6.0,53,0.00,,,0.00,Wunderground v.1.15,2013-03-25 23:39:00,
2013-03-25 16:44:00,59.1,42.9,29.96,NW,317,5.0,6.0,55,0.00,,,0.00,Wunderground v.1.15,2013-03-25 23:44:00,
2013-03-25 16:49:00,59.1,42.5,29.96,WSW,254,2.0,6.0,54,0.00,,,0.00,Wunderground v.1.15,2013-03-25 23:49:00,
2013-03-25 16:54:00,59.2,42.6,29.96,NNW,343,2.0,9.0,54,0.00,,,0.00,Wunderground v.1.15,2013-03-25 23:54:00,
2013-03-25 17:00:00,59.0,40.9,29.96,NNW,342,1.0,9.0,51,0.00,,,0.00,Wunderground v.1.15,2013-03-26 00:00:00,
2013-03-25 17:04:00,58.2,40.6,29.96,NNW,327,0.0,7.0,52,0.00,,,0.00,Wunderground v.1.15,2013-03-26 00:04:00,
2013-03-25 17:10:00,57.3,40.8,29.96,ENE,70,0.0,7.0,54,0.00,,,0.00,Wunderground v.1.15,2013-03-26 00:10:00,
2013-03-25 17:15:00,56.8,40.8,29.96,NW,304,2.0,7.0,55,0.00,,,0.00,Wunderground v.1.15,2013-03-26 00:15:00,
2013-03-25 17:20:00,56.8,40.8,29.96,North,11,2.0,7.0,55,0.00,,,0.00,Wunderground v.1.15,2013-03-26 00:20:00,
2013-03-25 17:25:00,56.6,39.7,29.95,NNW,331,5.0,7.0,53,0.00,,,0.00,Wunderground v.1.15,2013-03-26 00:25:00,
2013-03-25 17:30:00,56.5,39.6,29.95,NW,311,1.0,7.0,53,0.00,,,0.00,Wunderground v.1.15,2013-03-26 00:30:00,
2013-03-25 17:35:00,56.6,39.7,29.95,NNW,345,0.0,4.0,53,0.00,,,0.00,Wunderground v.1.15,2013-03-26 00:35:00,
2013-03-25 17:40:00,56.5,39.1,29.95,NE,51,0.0,4.0,52,0.00,,,0.00,Wunderground v.1.15,2013-03-26 00:40:00,
2013-03-25 17:45:00,56.3,38.9,29.95,North,360,3.0,5.0,52,0.00,,,0.00,Wunderground v.1.15,2013-03-26 00:45:00,
2013-03-25 17:50:00,56.1,39.7,29.95,NNE,33,0.0,1.0,54,0.00,,,0.00,Wunderground v.1.15,2013-03-26 00:50:00,
2013-03-25 17:55:00,55.9,38.5,29.95,WNW,296,1.0,6.0,52,0.00,,,0.00,Wunderground v.1.15,2013-03-26 00:55:00,
2013-03-25 18:00:00,55.5,38.1,29.95,NW,319,0.0,1.0,52,0.00,,,0.00,Wunderground v.1.15,2013-03-26 01:00:00,
2013-03-25 18:05:00,55.1,38.7,29.94,North,360,0.0,5.0,54,0.00,,,0.00,Wunderground v.1.15,2013-03-26 01:05:00,
2013-03-25 18:10:00,54.8,38.9,29.95,NNE,12,1.0,1.0,55,0.00,,,0.00,Wunderground v.1.15,2013-03-26 01:10:00,
2013-03-25 18:15:00,54.3,38.9,29.94,North,360,1.0,6.0,56,0.00,,,0.00,Wunderground v.1.15,2013-03-26 01:15:00,
2013-03-25 18:20:00,53.9,38.6,29.94,North,5,0.0,1.0,56,0.00,,,0.00,Wunderground v.1.15,2013-03-26 01:20:00,
2013-03-25 18:25:00,53.5,38.2,29.94,North,349,0.0,4.0,56,0.00,,,0.00,Wunderground v.1.15,2013-03-26 01:25:00,
2013-03-25 18:30:00,53.2,37.0,29.94,NNW,344,0.0,0.0,54,0.00,,,0.00,Wunderground v.1.15,2013-03-26 01:30:00,
2013-03-25 18:35:00,52.9,37.2,29.94,North,5,0.0,4.0,55,0.00,,,0.00,Wunderground v.1.15,2013-03-26 01:35:00,
2013-03-25 18:40:00,52.5,36.3,29.94,North,360,0.0,1.0,54,0.00,,,0.00,Wunderground v.1.15,2013-03-26 01:40:00,
2013-03-25 18:45:00,52.2,36.5,29.94,North,355,0.0,1.0,55,0.00,,,0.00,Wunderground v.1.15,2013-03-26 01:45:00,
2013-03-25 18:50:00,51.9,36.2,29.94,North,11,0.0,0.0,55,0.00,,,0.00,Wunderground v.1.15,2013-03-26 01:50:00,
2013-03-25 18:55:00,51.5,36.3,29.94,North,11,0.0,1.0,56,0.00,,,0.00,Wunderground v.1.15,2013-03-26 01:55:00,
2013-03-25 19:00:00,51.1,35.9,29.94,North,360,0.0,0.0,56,0.00,,,0.00,Wunderground v.1.15,2013-03-26 02:00:00,
2013-03-25 19:05:00,50.8,35.7,29.94,North,360,0.0,0.0,56,0.00,,,0.00,Wunderground v.1.15,2013-03-26 02:05:00,
2013-03-25 19:10:00,50.6,35.5,29.94,North,360,0.0,0.0,56,0.00,,,0.00,Wunderground v.1.15,2013-03-26 02:10:00,
2013-03-25 19:15:00,50.4,35.3,29.94,North,360,0.0,0.0,56,0.00,,,0.00,Wunderground v.1.15,2013-03-26 02:15:00,
2013-03-25 19:20:00,50.3,35.6,29.94,North,360,0.0,0.0,57,0.00,,,0.00,Wunderground v.1.15,2013-03-26 02:20:00,
2013-03-25 19:25:00,50.0,35.8,29.94,North,360,0.0,0.0,58,0.00,,,0.00,Wunderground v.1.15,2013-03-26 02:25:00,
2013-03-25 19:30:00,49.7,35.1,29.94,North,360,0.0,0.0,57,0.00,,,0.00,Wunderground v.1.15,2013-03-26 02:30:00,
2013-03-25 19:35:00,49.3,35.1,29.94,North,360,0.0,0.0,58,0.00,,,0.00,Wunderground v.1.15,2013-03-26 02:35:00,
2013-03-25 19:40:00,48.9,34.8,29.94,North,360,0.0,0.0,58,0.00,,,0.00,Wunderground v.1.15,2013-03-26 02:40:00,
2013-03-25 19:45:00,48.5,35.7,29.94,North,360,0.0,0.0,61,0.00,,,0.00,Wunderground v.1.15,2013-03-26 02:45:00,
2013-03-25 19:50:00,48.0,34.8,29.94,North,360,0.0,0.0,60,0.00,,,0.00,Wunderground v.1.15,2013-03-26 02:50:00,
2013-03-25 19:55:00,47.7,35.3,29.94,North,360,0.0,0.0,62,0.00,,,0.00,Wunderground v.1.15,2013-03-26 02:55:00,
2013-03-25 20:00:00,47.2,35.2,29.94,North,360,0.0,0.0,63,0.00,,,0.00,Wunderground v.1.15,2013-03-26 03:00:00,
2013-03-25 20:05:00,46.7,35.2,29.94,North,360,0.0,0.0,64,0.00,,,0.00,Wunderground v.1.15,2013-03-26 03:05:00,
2013-03-25 20:10:00,46.3,34.8,29.94,North,360,0.0,0.0,64,0.00,,,0.00,Wunderground v.1.15,2013-03-26 03:10:00,
2013-03-25 20:15:00,45.8,34.7,29.94,North,360,0.0,0.0,65,0.00,,,0.00,Wunderground v.1.15,2013-03-26 03:15:00,
2013-03-25 20:21:00,45.2,34.5,29.94,North,360,0.0,0.0,66,0.00,,,0.00,Wunderground v.1.15,2013-03-26 03:21:00,
2013-03-25 20:26:00,44.7,34.4,29.94,North,360,0.0,0.0,67,0.00,,,0.00,Wunderground v.1.15,2013-03-26 03:26:00,
2013-03-25 20:31:00,44.2,34.3,29.94,North,360,0.0,0.0,68,0.00,,,0.00,Wunderground v.1.15,2013-03-26 03:31:00,
2013-03-25 20:36:00,43.8,34.3,29.95,North,360,0.0,0.0,69,0.00,,,0.00,Wunderground v.1.15,2013-03-26 03:36:00,
2013-03-25 20:41:00,43.3,34.2,29.95,North,360,0.0,0.0,70,0.00,,,0.00,Wunderground v.1.15,2013-03-26 03:41:00,
2013-03-25 20:46:00,42.9,34.1,29.95,North,360,0.0,0.0,71,0.00,,,0.00,Wunderground v.1.15,2013-03-26 03:46:00,
2013-03-25 20:51:00,42.6,34.2,29.95,North,360,0.0,0.0,72,0.00,,,0.00,Wunderground v.1.15,2013-03-26 03:51:00,
2013-03-25 20:56:00,42.1,34.1,29.95,North,360,0.0,0.0,73,0.00,,,0.00,Wunderground v.1.15,2013-03-26 03:56:00,
2013-03-25 21:00:00,41.8,33.8,29.95,North,360,0.0,0.0,73,0.00,,,0.00,Wunderground v.1.15,2013-03-26 04:00:00,
2013-03-25 21:05:00,41.2,33.5,29.95,North,360,0.0,0.0,74,0.00,,,0.00,Wunderground v.1.15,2013-03-26 04:05:00,
2013-03-25 21:10:00,40.8,33.5,29.95,North,360,0.0,0.0,75,0.00,,,0.00,Wunderground v.1.15,2013-03-26 04:10:00,
2013-03-25 21:15:00,40.5,33.5,29.95,North,360,0.0,0.0,76,0.00,,,0.00,Wunderground v.1.15,2013-03-26 04:15:00,
2013-03-25 21:20:00,40.3,33.7,29.95,North,360,0.0,0.0,77,0.00,,,0.00,Wunderground v.1.15,2013-03-26 04:20:00,
2013-03-25 21:25:00,40.2,33.9,29.95,North,360,0.0,0.0,78,0.00,,,0.00,Wunderground v.1.15,2013-03-26 04:25:00,
2013-03-25 21:31:00,40.1,33.8,29.95,North,360,0.0,0.0,78,0.00,,,0.00,Wunderground v.1.15,2013-03-26 04:31:00,
2013-03-25 21:36:00,39.9,33.6,29.95,North,360,0.0,0.0,78,0.00,,,0.00,Wunderground v.1.15,2013-03-26 04:36:00,
2013-03-25 21:42:00,39.6,33.6,29.95,North,360,0.0,0.0,79,0.00,,,0.00,Wunderground v.1.15,2013-03-26 04:42:00,
2013-03-25 21:47:00,39.3,33.3,29.95,North,360,0.0,0.0,79,0.00,,,0.00,Wunderground v.1.15,2013-03-26 04:47:00,
2013-03-25 21:52:00,39.0,33.0,29.95,North,360,0.0,0.0,79,0.00,,,0.00,Wunderground v.1.15,2013-03-26 04:52:00,
2013-03-25 21:57:00,38.9,33.3,29.95,North,360,0.0,0.0,80,0.00,,,0.00,Wunderground v.1.15,2013-03-26 04:57:00,
2013-03-25 22:02:00,38.7,33.1,29.95,North,360,0.0,0.0,80,0.00,,,0.00,Wunderground v.1.15,2013-03-26 05:02:00,
2013-03-25 22:07:00,38.5,32.9,29.95,North,360,0.0,0.0,80,0.00,,,0.00,Wunderground v.1.15,2013-03-26 05:07:00,
2013-03-25 22:12:00,38.3,32.7,29.95,North,360,0.0,0.0,80,0.00,,,0.00,Wunderground v.1.15,2013-03-26 05:12:00,
2013-03-25 22:17:00,38.0,32.7,29.95,North,360,0.0,0.0,81,0.00,,,0.00,Wunderground v.1.15,2013-03-26 05:17:00,
2013-03-25 22:22:00,37.8,32.5,29.95,North,360,0.0,0.0,81,0.00,,,0.00,Wunderground v.1.15,2013-03-26 05:22:00,
2013-03-25 22:28:00,37.7,32.7,29.95,North,360,0.0,0.0,82,0.00,,,0.00,Wunderground v.1.15,2013-03-26 05:28:00,
2013-03-25 22:33:00,37.5,32.5,29.95,North,360,0.0,0.0,82,0.00,,,0.00,Wunderground v.1.15,2013-03-26 05:33:00,
2013-03-25 22:38:00,37.6,32.9,29.95,North,360,0.0,0.0,83,0.00,,,0.00,Wunderground v.1.15,2013-03-26 05:38:00,
2013-03-25 22:43:00,37.5,32.8,29.96,North,360,0.0,0.0,83,0.00,,,0.00,Wunderground v.1.15,2013-03-26 05:43:00,
2013-03-25 22:48:00,37.3,32.6,29.96,North,360,0.0,0.0,83,0.00,,,0.00,Wunderground v.1.15,2013-03-26 05:48:00,
2013-03-25 22:53:00,37.1,32.4,29.96,North,360,0.0,0.0,83,0.00,,,0.00,Wunderground v.1.15,2013-03-26 05:53:00,
2013-03-25 22:58:00,37.0,32.3,29.96,North,360,0.0,0.0,83,0.00,,,0.00,Wunderground v.1.15,2013-03-26 05:58:00,
2013-03-25 23:03:00,36.9,32.5,29.96,North,360,0.0,0.0,84,0.00,,,0.00,Wunderground v.1.15,2013-03-26 06:03:00,
2013-03-25 23:08:00,36.8,32.4,29.96,North,360,0.0,0.0,84,0.00,,,0.00,Wunderground v.1.15,2013-03-26 06:08:00,
2013-03-25 23:13:00,36.6,32.2,29.96,North,360,0.0,0.0,84,0.00,,,0.00,Wunderground v.1.15,2013-03-26 06:13:00,
2013-03-25 23:18:00,36.4,32.0,29.96,North,360,0.0,0.0,84,0.00,,,0.00,Wunderground v.1.15,2013-03-26 06:18:00,
2013-03-25 23:23:00,36.3,31.9,29.97,North,360,0.0,0.0,84,0.00,,,0.00,Wunderground v.1.15,2013-03-26 06:23:00,
2013-03-25 23:28:00,36.3,32.2,29.96,North,360,0.0,0.0,85,0.00,,,0.00,Wunderground v.1.15,2013-03-26 06:28:00,
2013-03-25 23:33:00,36.2,32.1,29.96,North,360,0.0,0.0,85,0.00,,,0.00,Wunderground v.1.15,2013-03-26 06:33:00,
2013-03-25 23:38:00,36.1,32.0,29.97,North,360,0.0,0.0,85,0.00,,,0.00,Wunderground v.1.15,2013-03-26 06:38:00,
2013-03-25 23:43:00,36.0,31.9,29.96,North,360,0.0,0.0,85,0.00,,,0.00,Wunderground v.1.15,2013-03-26 06:43:00,
2013-03-25 23:48:00,35.7,31.6,29.96,North,360,0.0,0.0,85,0.00,,,0.00,Wunderground v.1.15,2013-03-26 06:48:00,
2013-03-25 23:54:00,35.6,31.5,29.97,North,360,0.0,0.0,85,0.00,,,0.00,Wunderground v.1.15,2013-03-26 06:54:00,
2013-03-25 23:59:00,35.4,31.3,29.97,North,360,0.0,0.0,85,0.00,,,0.00,Wunderground v.1.15,2013-03-26 06:59:00,